Airport View

Enter AWOS ICAO identifier for current METAR.

ex. KFNL

KVPC 040453Z AUTO 00000KT 10SM FEW045 SCT055 BKN070 23/20 A2997 RMK AO2 SLP135 T02280200 403060217

4 Aug 2020 05:43

Frequency: 120.525

Phone: 770-606-0375

Other Area AWOS: KPUJ - KRYY - KCZL - KRMG

TAF KRYY 032347Z 0400/0424 04005KT P6SM SCT100 FM040200 04002KT P6SM SCT150 FM040900 00000KT 5SM BR SCT015 SCT050 FM041400 25005KT P6SM SCT025 SCT050